sensor_id;sensor_type;location;lat;lon;timestamp;P1;durP1;ratioP1;P2;durP2;ratioP2
7683;SDS011;3884;48.616;12.872;2023-09-19T00:02:29;4.90;;;3.10;;
7683;SDS011;3884;48.616;12.872;2023-09-19T00:04:55;4.83;;;2.90;;
7683;SDS011;3884;48.616;12.872;2023-09-19T00:07:22;3.27;;;2.97;;
7683;SDS011;3884;48.616;12.872;2023-09-19T00:09:49;5.37;;;3.00;;
7683;SDS011;3884;48.616;12.872;2023-09-19T00:12:16;8.07;;;3.07;;
7683;SDS011;3884;48.616;12.872;2023-09-19T00:14:45;4.87;;;3.27;;
7683;SDS011;3884;48.616;12.872;2023-09-19T00:17:13;5.27;;;3.40;;
7683;SDS011;3884;48.616;12.872;2023-09-19T00:19:41;4.47;;;3.50;;
7683;SDS011;3884;48.616;12.872;2023-09-19T00:22:09;5.03;;;2.93;;
7683;SDS011;3884;48.616;12.872;2023-09-19T00:24:36;3.60;;;2.67;;
7683;SDS011;3884;48.616;12.872;2023-09-19T00:27:03;5.07;;;3.07;;
7683;SDS011;3884;48.616;12.872;2023-09-19T00:29:30;6.77;;;3.03;;
7683;SDS011;3884;48.616;12.872;2023-09-19T00:31:59;5.87;;;3.20;;
7683;SDS011;3884;48.616;12.872;2023-09-19T00:34:28;3.20;;;2.70;;
7683;SDS011;3884;48.616;12.872;2023-09-19T00:36:59;4.33;;;2.90;;
7683;SDS011;3884;48.616;12.872;2023-09-19T00:39:26;3.73;;;2.50;;
7683;SDS011;3884;48.616;12.872;2023-09-19T00:41:53;4.20;;;2.77;;
7683;SDS011;3884;48.616;12.872;2023-09-19T00:44:20;4.20;;;2.40;;
7683;SDS011;3884;48.616;12.872;2023-09-19T00:46:49;5.20;;;2.60;;
7683;SDS011;3884;48.616;12.872;2023-09-19T00:49:18;5.20;;;3.00;;
7683;SDS011;3884;48.616;12.872;2023-09-19T00:51:47;6.07;;;2.60;;
7683;SDS011;3884;48.616;12.872;2023-09-19T00:54:15;5.47;;;3.00;;
7683;SDS011;3884;48.616;12.872;2023-09-19T00:56:44;5.30;;;2.80;;
7683;SDS011;3884;48.616;12.872;2023-09-19T00:59:13;4.37;;;2.77;;
7683;SDS011;3884;48.616;12.872;2023-09-19T01:01:40;3.97;;;2.60;;
7683;SDS011;3884;48.616;12.872;2023-09-19T01:04:08;3.27;;;2.33;;
7683;SDS011;3884;48.616;12.872;2023-09-19T01:06:36;3.40;;;2.50;;
7683;SDS011;3884;48.616;12.872;2023-09-19T01:09:04;4.60;;;2.67;;
7683;SDS011;3884;48.616;12.872;2023-09-19T01:11:33;4.63;;;2.60;;
7683;SDS011;3884;48.616;12.872;2023-09-19T01:14:09;4.33;;;2.60;;
7683;SDS011;3884;48.616;12.872;2023-09-19T01:16:45;3.63;;;2.50;;
7683;SDS011;3884;48.616;12.872;2023-09-19T01:22:31;6.17;;;2.87;;
7683;SDS011;3884;48.616;12.872;2023-09-19T01:28:06;5.77;;;2.70;;
7683;SDS011;3884;48.616;12.872;2023-09-19T01:30:48;3.83;;;2.20;;
7683;SDS011;3884;48.616;12.872;2023-09-19T01:33:20;2.93;;;2.43;;
7683;SDS011;3884;48.616;12.872;2023-09-19T01:35:48;2.50;;;2.30;;
7683;SDS011;3884;48.616;12.872;2023-09-19T01:38:15;6.53;;;2.80;;
7683;SDS011;3884;48.616;12.872;2023-09-19T01:40:47;5.40;;;2.80;;
7683;SDS011;3884;48.616;12.872;2023-09-19T01:43:33;6.23;;;2.73;;
7683;SDS011;3884;48.616;12.872;2023-09-19T01:46:12;4.00;;;2.60;;
7683;SDS011;3884;48.616;12.872;2023-09-19T01:48:43;5.30;;;2.80;;
7683;SDS011;3884;48.616;12.872;2023-09-19T01:51:18;4.70;;;2.70;;
7683;SDS011;3884;48.616;12.872;2023-09-19T01:53:51;6.07;;;2.57;;
7683;SDS011;3884;48.616;12.872;2023-09-19T01:56:29;5.70;;;2.80;;
7683;SDS011;3884;48.616;12.872;2023-09-19T01:59:02;5.17;;;2.63;;
7683;SDS011;3884;48.616;12.872;2023-09-19T02:01:36;5.13;;;2.70;;
7683;SDS011;3884;48.616;12.872;2023-09-19T02:04:04;3.23;;;2.80;;
7683;SDS011;3884;48.616;12.872;2023-09-19T02:06:31;4.60;;;3.20;;
7683;SDS011;3884;48.616;12.872;2023-09-19T02:08:59;3.30;;;3.00;;
7683;SDS011;3884;48.616;12.872;2023-09-19T02:11:26;6.33;;;3.00;;
7683;SDS011;3884;48.616;12.872;2023-09-19T02:13:53;6.13;;;2.53;;
7683;SDS011;3884;48.616;12.872;2023-09-19T02:16:20;6.63;;;2.67;;
7683;SDS011;3884;48.616;12.872;2023-09-19T02:18:49;4.53;;;2.83;;
7683;SDS011;3884;48.616;12.872;2023-09-19T02:21:16;3.13;;;2.70;;
7683;SDS011;3884;48.616;12.872;2023-09-19T02:23:43;5.10;;;3.53;;
7683;SDS011;3884;48.616;12.872;2023-09-19T02:26:12;4.70;;;2.80;;
7683;SDS011;3884;48.616;12.872;2023-09-19T02:28:40;4.43;;;2.93;;
7683;SDS011;3884;48.616;12.872;2023-09-19T02:31:08;7.13;;;2.80;;
7683;SDS011;3884;48.616;12.872;2023-09-19T02:33:36;2.97;;;2.67;;
7683;SDS011;3884;48.616;12.872;2023-09-19T02:36:05;3.27;;;2.67;;
7683;SDS011;3884;48.616;12.872;2023-09-19T02:38:32;5.57;;;2.57;;
7683;SDS011;3884;48.616;12.872;2023-09-19T02:40:59;3.27;;;2.50;;
7683;SDS011;3884;48.616;12.872;2023-09-19T02:43:27;5.23;;;2.70;;
7683;SDS011;3884;48.616;12.872;2023-09-19T02:45:54;6.17;;;2.90;;
7683;SDS011;3884;48.616;12.872;2023-09-19T02:48:22;3.57;;;2.60;;
7683;SDS011;3884;48.616;12.872;2023-09-19T02:50:50;5.80;;;2.90;;
7683;SDS011;3884;48.616;12.872;2023-09-19T02:53:19;4.10;;;2.53;;
7683;SDS011;3884;48.616;12.872;2023-09-19T02:55:47;3.23;;;2.50;;
7683;SDS011;3884;48.616;12.872;2023-09-19T02:58:14;3.00;;;2.30;;
7683;SDS011;3884;48.616;12.872;2023-09-19T03:00:43;3.23;;;2.57;;
7683;SDS011;3884;48.616;12.872;2023-09-19T03:03:12;3.03;;;2.60;;
7683;SDS011;3884;48.616;12.872;2023-09-19T03:05:40;5.00;;;2.50;;
7683;SDS011;3884;48.616;12.872;2023-09-19T03:08:12;5.20;;;2.53;;
7683;SDS011;3884;48.616;12.872;2023-09-19T03:10:45;2.97;;;2.60;;
7683;SDS011;3884;48.616;12.872;2023-09-19T03:13:12;5.23;;;2.60;;
7683;SDS011;3884;48.616;12.872;2023-09-19T03:15:40;4.50;;;2.33;;
7683;SDS011;3884;48.616;12.872;2023-09-19T03:18:09;3.07;;;2.50;;
7683;SDS011;3884;48.616;12.872;2023-09-19T03:20:38;3.27;;;2.53;;
7683;SDS011;3884;48.616;12.872;2023-09-19T03:23:05;2.50;;;2.30;;
7683;SDS011;3884;48.616;12.872;2023-09-19T03:25:34;3.47;;;2.20;;
7683;SDS011;3884;48.616;12.872;2023-09-19T03:28:03;6.13;;;2.67;;
7683;SDS011;3884;48.616;12.872;2023-09-19T03:30:31;4.17;;;2.47;;
7683;SDS011;3884;48.616;12.872;2023-09-19T03:33:02;4.13;;;2.37;;
7683;SDS011;3884;48.616;12.872;2023-09-19T03:35:30;4.17;;;2.50;;
7683;SDS011;3884;48.616;12.872;2023-09-19T03:37:57;2.37;;;2.10;;
7683;SDS011;3884;48.616;12.872;2023-09-19T03:40:24;2.70;;;2.50;;
7683;SDS011;3884;48.616;12.872;2023-09-19T03:42:51;3.57;;;2.80;;
7683;SDS011;3884;48.616;12.872;2023-09-19T03:45:20;4.10;;;2.57;;
7683;SDS011;3884;48.616;12.872;2023-09-19T03:47:50;4.67;;;2.40;;
7683;SDS011;3884;48.616;12.872;2023-09-19T03:50:20;3.67;;;2.40;;
7683;SDS011;3884;48.616;12.872;2023-09-19T03:52:47;4.73;;;2.60;;
7683;SDS011;3884;48.616;12.872;2023-09-19T03:55:14;3.20;;;2.50;;
7683;SDS011;3884;48.616;12.872;2023-09-19T03:57:41;4.43;;;2.73;;
7683;SDS011;3884;48.616;12.872;2023-09-19T04:00:09;3.10;;;2.43;;
7683;SDS011;3884;48.616;12.872;2023-09-19T04:02:41;5.53;;;2.60;;
7683;SDS011;3884;48.616;12.872;2023-09-19T04:05:09;5.03;;;2.53;;
7683;SDS011;3884;48.616;12.872;2023-09-19T04:07:36;2.53;;;2.13;;
7683;SDS011;3884;48.616;12.872;2023-09-19T04:10:03;3.90;;;2.57;;
7683;SDS011;3884;48.616;12.872;2023-09-19T04:12:31;3.93;;;2.50;;
7683;SDS011;3884;48.616;12.872;2023-09-19T04:14:58;5.27;;;2.60;;
7683;SDS011;3884;48.616;12.872;2023-09-19T04:17:25;2.63;;;2.40;;
7683;SDS011;3884;48.616;12.872;2023-09-19T04:19:53;3.20;;;2.40;;
7683;SDS011;3884;48.616;12.872;2023-09-19T04:22:20;2.40;;;1.90;;
7683;SDS011;3884;48.616;12.872;2023-09-19T04:24:47;4.53;;;2.33;;
7683;SDS011;3884;48.616;12.872;2023-09-19T04:27:14;3.00;;;1.93;;
7683;SDS011;3884;48.616;12.872;2023-09-19T04:29:42;2.23;;;2.00;;
7683;SDS011;3884;48.616;12.872;2023-09-19T04:32:08;3.47;;;2.17;;
7683;SDS011;3884;48.616;12.872;2023-09-19T04:34:36;3.43;;;2.10;;
7683;SDS011;3884;48.616;12.872;2023-09-19T04:37:04;4.47;;;2.20;;
7683;SDS011;3884;48.616;12.872;2023-09-19T04:39:31;2.80;;;2.20;;
7683;SDS011;3884;48.616;12.872;2023-09-19T04:41:59;3.83;;;2.63;;
7683;SDS011;3884;48.616;12.872;2023-09-19T04:44:26;5.37;;;2.83;;
7683;SDS011;3884;48.616;12.872;2023-09-19T04:46:53;5.07;;;2.40;;
7683;SDS011;3884;48.616;12.872;2023-09-19T04:49:19;3.10;;;1.90;;
7683;SDS011;3884;48.616;12.872;2023-09-19T04:51:47;3.03;;;2.13;;
7683;SDS011;3884;48.616;12.872;2023-09-19T04:54:15;4.73;;;2.43;;
7683;SDS011;3884;48.616;12.872;2023-09-19T04:56:43;3.30;;;2.43;;
7683;SDS011;3884;48.616;12.872;2023-09-19T04:59:10;3.57;;;2.30;;
7683;SDS011;3884;48.616;12.872;2023-09-19T05:01:37;5.00;;;2.43;;
7683;SDS011;3884;48.616;12.872;2023-09-19T05:04:04;6.93;;;2.10;;
7683;SDS011;3884;48.616;12.872;2023-09-19T05:06:31;6.83;;;2.63;;
7683;SDS011;3884;48.616;12.872;2023-09-19T05:08:58;2.53;;;2.10;;
7683;SDS011;3884;48.616;12.872;2023-09-19T05:11:26;3.77;;;2.20;;
7683;SDS011;3884;48.616;12.872;2023-09-19T05:13:55;4.13;;;2.20;;
7683;SDS011;3884;48.616;12.872;2023-09-19T05:16:22;2.50;;;2.30;;
7683;SDS011;3884;48.616;12.872;2023-09-19T05:18:49;4.07;;;2.20;;
7683;SDS011;3884;48.616;12.872;2023-09-19T05:21:16;3.73;;;2.40;;
7683;SDS011;3884;48.616;12.872;2023-09-19T05:23:43;2.43;;;2.23;;
7683;SDS011;3884;48.616;12.872;2023-09-19T05:26:10;4.37;;;2.50;;
7683;SDS011;3884;48.616;12.872;2023-09-19T05:28:39;3.87;;;2.53;;
7683;SDS011;3884;48.616;12.872;2023-09-19T05:31:06;5.10;;;2.43;;
7683;SDS011;3884;48.616;12.872;2023-09-19T05:33:32;3.83;;;2.70;;
7683;SDS011;3884;48.616;12.872;2023-09-19T05:35:59;2.60;;;2.40;;
7683;SDS011;3884;48.616;12.872;2023-09-19T05:38:26;4.43;;;2.50;;
7683;SDS011;3884;48.616;12.872;2023-09-19T05:40:53;3.27;;;2.33;;
7683;SDS011;3884;48.616;12.872;2023-09-19T05:43:20;3.40;;;2.33;;
7683;SDS011;3884;48.616;12.872;2023-09-19T05:45:49;4.53;;;2.50;;
7683;SDS011;3884;48.616;12.872;2023-09-19T05:48:17;3.50;;;2.30;;
7683;SDS011;3884;48.616;12.872;2023-09-19T05:50:46;4.57;;;2.47;;
7683;SDS011;3884;48.616;12.872;2023-09-19T05:53:14;3.23;;;2.60;;
7683;SDS011;3884;48.616;12.872;2023-09-19T05:55:43;3.10;;;2.30;;
7683;SDS011;3884;48.616;12.872;2023-09-19T05:58:10;4.83;;;2.53;;
7683;SDS011;3884;48.616;12.872;2023-09-19T06:00:39;2.93;;;2.50;;
7683;SDS011;3884;48.616;12.872;2023-09-19T06:03:08;3.50;;;2.53;;
7683;SDS011;3884;48.616;12.872;2023-09-19T06:05:35;2.80;;;2.60;;
7683;SDS011;3884;48.616;12.872;2023-09-19T06:08:04;6.47;;;3.00;;
7683;SDS011;3884;48.616;12.872;2023-09-19T06:10:32;5.20;;;2.60;;
7683;SDS011;3884;48.616;12.872;2023-09-19T06:13:00;3.40;;;2.43;;
7683;SDS011;3884;48.616;12.872;2023-09-19T06:15:29;2.63;;;2.30;;
7683;SDS011;3884;48.616;12.872;2023-09-19T06:17:58;4.20;;;2.93;;
7683;SDS011;3884;48.616;12.872;2023-09-19T06:20:28;4.83;;;2.90;;
7683;SDS011;3884;48.616;12.872;2023-09-19T06:22:57;2.97;;;2.53;;
7683;SDS011;3884;48.616;12.872;2023-09-19T06:25:24;3.13;;;2.53;;
7683;SDS011;3884;48.616;12.872;2023-09-19T06:27:51;3.40;;;2.40;;
7683;SDS011;3884;48.616;12.872;2023-09-19T06:30:22;5.80;;;2.50;;
7683;SDS011;3884;48.616;12.872;2023-09-19T06:32:55;3.40;;;2.43;;
7683;SDS011;3884;48.616;12.872;2023-09-19T06:35:22;4.43;;;2.57;;
7683;SDS011;3884;48.616;12.872;2023-09-19T06:37:55;5.07;;;2.50;;
7683;SDS011;3884;48.616;12.872;2023-09-19T06:40:23;3.60;;;2.47;;
7683;SDS011;3884;48.616;12.872;2023-09-19T06:42:50;5.27;;;2.73;;
7683;SDS011;3884;48.616;12.872;2023-09-19T06:45:20;5.23;;;2.70;;
7683;SDS011;3884;48.616;12.872;2023-09-19T06:47:48;4.97;;;3.10;;
7683;SDS011;3884;48.616;12.872;2023-09-19T06:50:16;4.10;;;2.63;;
7683;SDS011;3884;48.616;12.872;2023-09-19T06:52:45;5.67;;;2.60;;
7683;SDS011;3884;48.616;12.872;2023-09-19T06:55:17;3.30;;;2.70;;
7683;SDS011;3884;48.616;12.872;2023-09-19T06:57:44;3.47;;;2.53;;
7683;SDS011;3884;48.616;12.872;2023-09-19T07:00:12;3.23;;;2.20;;
7683;SDS011;3884;48.616;12.872;2023-09-19T07:02:54;4.50;;;2.70;;
7683;SDS011;3884;48.616;12.872;2023-09-19T07:05:24;3.83;;;2.60;;
7683;SDS011;3884;48.616;12.872;2023-09-19T07:07:52;4.73;;;2.60;;
7683;SDS011;3884;48.616;12.872;2023-09-19T07:10:21;2.70;;;2.13;;
7683;SDS011;3884;48.616;12.872;2023-09-19T07:12:56;4.47;;;2.50;;
7683;SDS011;3884;48.616;12.872;2023-09-19T07:15:24;2.80;;;2.43;;
7683;SDS011;3884;48.616;12.872;2023-09-19T07:17:51;3.23;;;2.63;;
7683;SDS011;3884;48.616;12.872;2023-09-19T07:20:19;2.97;;;2.30;;
7683;SDS011;3884;48.616;12.872;2023-09-19T07:22:46;3.20;;;2.50;;
7683;SDS011;3884;48.616;12.872;2023-09-19T07:25:15;5.67;;;2.50;;
7683;SDS011;3884;48.616;12.872;2023-09-19T07:27:46;6.20;;;2.47;;
7683;SDS011;3884;48.616;12.872;2023-09-19T07:30:14;3.67;;;2.47;;
7683;SDS011;3884;48.616;12.872;2023-09-19T07:32:41;5.70;;;2.30;;
7683;SDS011;3884;48.616;12.872;2023-09-19T07:35:17;5.33;;;2.40;;
7683;SDS011;3884;48.616;12.872;2023-09-19T07:37:46;3.40;;;2.43;;
7683;SDS011;3884;48.616;12.872;2023-09-19T07:40:19;3.43;;;2.50;;
7683;SDS011;3884;48.616;12.872;2023-09-19T07:42:53;4.13;;;2.33;;
7683;SDS011;3884;48.616;12.872;2023-09-19T07:45:21;2.93;;;2.60;;
7683;SDS011;3884;48.616;12.872;2023-09-19T07:47:52;2.97;;;2.40;;
7683;SDS011;3884;48.616;12.872;2023-09-19T07:50:20;3.13;;;2.30;;
7683;SDS011;3884;48.616;12.872;2023-09-19T07:52:48;2.73;;;2.47;;
7683;SDS011;3884;48.616;12.872;2023-09-19T07:55:19;3.67;;;2.30;;
7683;SDS011;3884;48.616;12.872;2023-09-19T07:57:51;3.10;;;2.40;;
7683;SDS011;3884;48.616;12.872;2023-09-19T08:00:19;3.37;;;2.40;;
7683;SDS011;3884;48.616;12.872;2023-09-19T08:02:47;3.13;;;2.40;;
7683;SDS011;3884;48.616;12.872;2023-09-19T08:05:14;3.10;;;2.47;;
7683;SDS011;3884;48.616;12.872;2023-09-19T08:07:42;3.00;;;2.10;;
7683;SDS011;3884;48.616;12.872;2023-09-19T08:10:10;4.23;;;2.30;;
7683;SDS011;3884;48.616;12.872;2023-09-19T08:12:38;2.40;;;2.20;;
7683;SDS011;3884;48.616;12.872;2023-09-19T08:15:13;2.80;;;2.27;;
7683;SDS011;3884;48.616;12.872;2023-09-19T08:17:40;5.03;;;2.40;;
7683;SDS011;3884;48.616;12.872;2023-09-19T08:20:07;3.47;;;2.20;;
7683;SDS011;3884;48.616;12.872;2023-09-19T08:22:42;2.40;;;2.20;;
7683;SDS011;3884;48.616;12.872;2023-09-19T08:25:12;4.30;;;2.00;;
7683;SDS011;3884;48.616;12.872;2023-09-19T08:27:42;3.87;;;1.90;;
7683;SDS011;3884;48.616;12.872;2023-09-19T08:30:14;4.43;;;2.00;;
7683;SDS011;3884;48.616;12.872;2023-09-19T08:32:45;2.77;;;2.33;;
7683;SDS011;3884;48.616;12.872;2023-09-19T08:35:13;5.97;;;3.53;;
7683;SDS011;3884;48.616;12.872;2023-09-19T08:37:40;2.40;;;2.00;;
7683;SDS011;3884;48.616;12.872;2023-09-19T08:40:08;2.33;;;2.13;;
7683;SDS011;3884;48.616;12.872;2023-09-19T08:42:47;2.80;;;2.00;;
7683;SDS011;3884;48.616;12.872;2023-09-19T08:45:17;2.63;;;2.10;;
7683;SDS011;3884;48.616;12.872;2023-09-19T08:47:45;3.50;;;1.80;;
7683;SDS011;3884;48.616;12.872;2023-09-19T08:50:18;3.63;;;2.10;;
7683;SDS011;3884;48.616;12.872;2023-09-19T08:52:49;2.10;;;1.93;;
7683;SDS011;3884;48.616;12.872;2023-09-19T08:55:19;2.67;;;2.10;;
7683;SDS011;3884;48.616;12.872;2023-09-19T08:57:52;2.77;;;1.83;;
7683;SDS011;3884;48.616;12.872;2023-09-19T09:00:28;3.10;;;2.20;;
7683;SDS011;3884;48.616;12.872;2023-09-19T09:02:56;3.47;;;2.00;;
7683;SDS011;3884;48.616;12.872;2023-09-19T09:05:25;2.30;;;2.10;;
7683;SDS011;3884;48.616;12.872;2023-09-19T09:07:55;2.13;;;1.80;;
7683;SDS011;3884;48.616;12.872;2023-09-19T09:10:22;2.60;;;1.90;;
7683;SDS011;3884;48.616;12.872;2023-09-19T09:12:50;2.23;;;2.03;;
7683;SDS011;3884;48.616;12.872;2023-09-19T09:15:18;3.93;;;1.97;;
7683;SDS011;3884;48.616;12.872;2023-09-19T09:17:48;2.33;;;1.73;;
7683;SDS011;3884;48.616;12.872;2023-09-19T09:20:18;2.43;;;1.70;;
7683;SDS011;3884;48.616;12.872;2023-09-19T09:22:51;3.00;;;1.73;;
7683;SDS011;3884;48.616;12.872;2023-09-19T09:25:20;3.10;;;1.90;;
7683;SDS011;3884;48.616;12.872;2023-09-19T09:27:58;2.97;;;2.20;;
7683;SDS011;3884;48.616;12.872;2023-09-19T09:30:33;2.23;;;1.80;;
7683;SDS011;3884;48.616;12.872;2023-09-19T09:33:11;2.30;;;1.80;;
7683;SDS011;3884;48.616;12.872;2023-09-19T09:35:47;4.70;;;2.00;;
7683;SDS011;3884;48.616;12.872;2023-09-19T09:38:18;2.30;;;2.00;;
7683;SDS011;3884;48.616;12.872;2023-09-19T09:40:47;2.63;;;2.00;;
7683;SDS011;3884;48.616;12.872;2023-09-19T09:43:25;3.00;;;2.13;;
7683;SDS011;3884;48.616;12.872;2023-09-19T09:46:06;2.87;;;2.17;;
7683;SDS011;3884;48.616;12.872;2023-09-19T09:48:59;3.13;;;1.93;;
7683;SDS011;3884;48.616;12.872;2023-09-19T09:51:50;2.93;;;1.80;;
7683;SDS011;3884;48.616;12.872;2023-09-19T09:54:31;1.87;;;1.70;;
7683;SDS011;3884;48.616;12.872;2023-09-19T09:57:02;2.33;;;2.03;;
7683;SDS011;3884;48.616;12.872;2023-09-19T09:59:45;2.30;;;1.90;;
7683;SDS011;3884;48.616;12.872;2023-09-19T10:02:13;2.60;;;1.67;;
7683;SDS011;3884;48.616;12.872;2023-09-19T10:04:49;2.37;;;2.03;;
7683;SDS011;3884;48.616;12.872;2023-09-19T10:07:34;2.43;;;1.73;;
7683;SDS011;3884;48.616;12.872;2023-09-19T10:10:06;2.47;;;1.83;;
7683;SDS011;3884;48.616;12.872;2023-09-19T10:12:42;3.63;;;1.80;;
7683;SDS011;3884;48.616;12.872;2023-09-19T10:15:13;2.27;;;1.83;;
7683;SDS011;3884;48.616;12.872;2023-09-19T10:17:42;3.20;;;1.90;;
7683;SDS011;3884;48.616;12.872;2023-09-19T10:20:15;3.67;;;2.07;;
7683;SDS011;3884;48.616;12.872;2023-09-19T10:23:00;3.17;;;1.70;;
7683;SDS011;3884;48.616;12.872;2023-09-19T10:25:34;3.53;;;1.93;;
7683;SDS011;3884;48.616;12.872;2023-09-19T10:28:05;4.23;;;1.73;;
7683;SDS011;3884;48.616;12.872;2023-09-19T10:30:36;2.30;;;1.80;;
7683;SDS011;3884;48.616;12.872;2023-09-19T10:33:08;4.07;;;1.70;;
7683;SDS011;3884;48.616;12.872;2023-09-19T10:35:39;5.90;;;1.77;;
7683;SDS011;3884;48.616;12.872;2023-09-19T10:38:09;1.70;;;1.60;;
7683;SDS011;3884;48.616;12.872;2023-09-19T10:40:37;2.40;;;1.80;;
7683;SDS011;3884;48.616;12.872;2023-09-19T10:43:11;2.23;;;1.80;;
7683;SDS011;3884;48.616;12.872;2023-09-19T10:45:42;1.97;;;1.77;;
7683;SDS011;3884;48.616;12.872;2023-09-19T10:48:12;2.77;;;1.63;;
7683;SDS011;3884;48.616;12.872;2023-09-19T10:50:43;3.13;;;1.93;;
7683;SDS011;3884;48.616;12.872;2023-09-19T10:53:14;3.00;;;1.50;;
7683;SDS011;3884;48.616;12.872;2023-09-19T10:55:47;2.73;;;1.83;;
7683;SDS011;3884;48.616;12.872;2023-09-19T10:58:24;1.63;;;1.50;;
7683;SDS011;3884;48.616;12.872;2023-09-19T11:00:56;2.10;;;1.40;;
7683;SDS011;3884;48.616;12.872;2023-09-19T11:03:33;3.23;;;1.83;;
7683;SDS011;3884;48.616;12.872;2023-09-19T11:06:04;3.73;;;2.03;;
7683;SDS011;3884;48.616;12.872;2023-09-19T11:11:39;6.03;;;2.80;;
7683;SDS011;3884;48.616;12.872;2023-09-19T11:14:13;4.73;;;2.43;;
7683;SDS011;3884;48.616;12.872;2023-09-19T11:23:22;3.47;;;1.60;;
7683;SDS011;3884;48.616;12.872;2023-09-19T11:25:54;4.13;;;1.43;;
7683;SDS011;3884;48.616;12.872;2023-09-19T11:28:32;1.97;;;1.63;;
7683;SDS011;3884;48.616;12.872;2023-09-19T11:36:58;3.03;;;1.30;;
7683;SDS011;3884;48.616;12.872;2023-09-19T11:39:30;1.83;;;1.40;;
7683;SDS011;3884;48.616;12.872;2023-09-19T11:41:58;5.17;;;1.40;;
7683;SDS011;3884;48.616;12.872;2023-09-19T11:44:33;1.63;;;1.40;;
7683;SDS011;3884;48.616;12.872;2023-09-19T11:47:06;2.10;;;1.30;;
7683;SDS011;3884;48.616;12.872;2023-09-19T11:49:35;1.50;;;1.30;;
7683;SDS011;3884;48.616;12.872;2023-09-19T11:52:08;3.03;;;1.40;;
7683;SDS011;3884;48.616;12.872;2023-09-19T11:54:43;1.33;;;1.23;;
7683;SDS011;3884;48.616;12.872;2023-09-19T11:57:12;1.73;;;1.03;;
7683;SDS011;3884;48.616;12.872;2023-09-19T11:59:48;1.53;;;1.23;;
7683;SDS011;3884;48.616;12.872;2023-09-19T12:02:20;1.43;;;1.27;;
7683;SDS011;3884;48.616;12.872;2023-09-19T12:05:08;1.20;;;1.10;;
7683;SDS011;3884;48.616;12.872;2023-09-19T12:07:42;1.20;;;1.10;;
7683;SDS011;3884;48.616;12.872;2023-09-19T12:10:12;1.27;;;1.17;;
7683;SDS011;3884;48.616;12.872;2023-09-19T12:12:46;2.37;;;1.40;;
7683;SDS011;3884;48.616;12.872;2023-09-19T12:15:14;2.23;;;1.47;;
7683;SDS011;3884;48.616;12.872;2023-09-19T12:17:50;1.63;;;1.20;;
7683;SDS011;3884;48.616;12.872;2023-09-19T12:20:19;2.53;;;1.10;;
7683;SDS011;3884;48.616;12.872;2023-09-19T12:22:49;1.50;;;1.40;;
7683;SDS011;3884;48.616;12.872;2023-09-19T12:25:18;1.50;;;1.30;;
7683;SDS011;3884;48.616;12.872;2023-09-19T12:27:47;1.30;;;1.20;;
7683;SDS011;3884;48.616;12.872;2023-09-19T12:30:18;2.67;;;1.30;;
7683;SDS011;3884;48.616;12.872;2023-09-19T12:32:46;1.63;;;1.20;;
7683;SDS011;3884;48.616;12.872;2023-09-19T12:35:26;1.30;;;1.20;;
7683;SDS011;3884;48.616;12.872;2023-09-19T12:37:53;3.60;;;1.30;;
7683;SDS011;3884;48.616;12.872;2023-09-19T12:40:23;1.67;;;1.20;;
7683;SDS011;3884;48.616;12.872;2023-09-19T12:42:53;1.20;;;1.10;;
7683;SDS011;3884;48.616;12.872;2023-09-19T12:45:21;1.97;;;1.30;;
7683;SDS011;3884;48.616;12.872;2023-09-19T12:51:01;1.70;;;1.30;;
7683;SDS011;3884;48.616;12.872;2023-09-19T12:53:34;1.70;;;1.47;;
7683;SDS011;3884;48.616;12.872;2023-09-19T12:56:07;1.30;;;1.10;;
7683;SDS011;3884;48.616;12.872;2023-09-19T12:58:34;1.43;;;1.30;;
7683;SDS011;3884;48.616;12.872;2023-09-19T13:01:14;1.37;;;1.27;;
7683;SDS011;3884;48.616;12.872;2023-09-19T13:03:44;3.43;;;1.40;;
7683;SDS011;3884;48.616;12.872;2023-09-19T13:06:11;1.90;;;1.33;;
7683;SDS011;3884;48.616;12.872;2023-09-19T13:08:42;2.47;;;1.10;;
7683;SDS011;3884;48.616;12.872;2023-09-19T13:11:16;1.40;;;1.30;;
7683;SDS011;3884;48.616;12.872;2023-09-19T13:13:46;1.30;;;1.20;;
7683;SDS011;3884;48.616;12.872;2023-09-19T13:16:20;2.07;;;1.30;;
7683;SDS011;3884;48.616;12.872;2023-09-19T13:18:50;1.63;;;1.53;;
7683;SDS011;3884;48.616;12.872;2023-09-19T13:21:27;2.27;;;1.60;;
7683;SDS011;3884;48.616;12.872;2023-09-19T13:26:47;1.70;;;1.60;;
7683;SDS011;3884;48.616;12.872;2023-09-19T13:29:14;1.40;;;1.30;;
7683;SDS011;3884;48.616;12.872;2023-09-19T13:31:45;2.00;;;1.30;;
7683;SDS011;3884;48.616;12.872;2023-09-19T13:34:12;2.13;;;1.40;;
7683;SDS011;3884;48.616;12.872;2023-09-19T13:36:41;2.30;;;1.60;;
7683;SDS011;3884;48.616;12.872;2023-09-19T13:39:08;2.43;;;1.43;;
7683;SDS011;3884;48.616;12.872;2023-09-19T13:41:38;4.90;;;1.93;;
7683;SDS011;3884;48.616;12.872;2023-09-19T13:44:07;1.40;;;1.30;;
7683;SDS011;3884;48.616;12.872;2023-09-19T13:46:35;1.83;;;1.30;;
7683;SDS011;3884;48.616;12.872;2023-09-19T13:49:02;1.40;;;1.30;;
7683;SDS011;3884;48.616;12.872;2023-09-19T13:51:30;1.93;;;1.53;;
7683;SDS011;3884;48.616;12.872;2023-09-19T13:53:58;3.23;;;1.43;;
7683;SDS011;3884;48.616;12.872;2023-09-19T13:56:25;2.77;;;1.80;;
7683;SDS011;3884;48.616;12.872;2023-09-19T13:58:53;1.73;;;1.50;;
7683;SDS011;3884;48.616;12.872;2023-09-19T14:01:21;1.40;;;1.30;;
7683;SDS011;3884;48.616;12.872;2023-09-19T14:03:49;2.00;;;1.30;;
7683;SDS011;3884;48.616;12.872;2023-09-19T14:06:16;4.43;;;1.70;;
7683;SDS011;3884;48.616;12.872;2023-09-19T14:08:43;1.60;;;1.40;;
7683;SDS011;3884;48.616;12.872;2023-09-19T14:11:12;1.83;;;1.40;;
7683;SDS011;3884;48.616;12.872;2023-09-19T14:13:41;2.53;;;1.60;;
7683;SDS011;3884;48.616;12.872;2023-09-19T14:16:12;2.57;;;1.43;;
7683;SDS011;3884;48.616;12.872;2023-09-19T14:18:40;4.20;;;1.80;;
7683;SDS011;3884;48.616;12.872;2023-09-19T14:21:07;1.57;;;1.47;;
7683;SDS011;3884;48.616;12.872;2023-09-19T14:23:36;2.00;;;1.60;;
7683;SDS011;3884;48.616;12.872;2023-09-19T14:26:03;1.97;;;1.40;;
7683;SDS011;3884;48.616;12.872;2023-09-19T14:28:31;1.87;;;1.57;;
7683;SDS011;3884;48.616;12.872;2023-09-19T14:31:03;2.43;;;1.50;;
7683;SDS011;3884;48.616;12.872;2023-09-19T14:33:31;3.07;;;1.70;;
7683;SDS011;3884;48.616;12.872;2023-09-19T14:36:03;1.90;;;1.67;;
7683;SDS011;3884;48.616;12.872;2023-09-19T14:38:32;4.07;;;1.60;;
7683;SDS011;3884;48.616;12.872;2023-09-19T14:41:00;2.07;;;1.40;;
7683;SDS011;3884;48.616;12.872;2023-09-19T14:43:27;1.67;;;1.33;;
7683;SDS011;3884;48.616;12.872;2023-09-19T14:45:55;2.20;;;1.73;;
7683;SDS011;3884;48.616;12.872;2023-09-19T14:48:23;2.17;;;1.63;;
7683;SDS011;3884;48.616;12.872;2023-09-19T14:50:51;1.83;;;1.50;;
7683;SDS011;3884;48.616;12.872;2023-09-19T14:53:20;3.03;;;2.70;;
7683;SDS011;3884;48.616;12.872;2023-09-19T14:55:47;2.73;;;1.43;;
7683;SDS011;3884;48.616;12.872;2023-09-19T14:58:17;3.20;;;1.57;;
7683;SDS011;3884;48.616;12.872;2023-09-19T15:00:44;1.87;;;1.67;;
7683;SDS011;3884;48.616;12.872;2023-09-19T15:03:11;1.93;;;1.70;;
7683;SDS011;3884;48.616;12.872;2023-09-19T15:05:39;2.20;;;1.60;;
7683;SDS011;3884;48.616;12.872;2023-09-19T15:08:05;2.07;;;1.60;;
7683;SDS011;3884;48.616;12.872;2023-09-19T15:10:34;2.23;;;1.67;;
7683;SDS011;3884;48.616;12.872;2023-09-19T15:13:01;3.77;;;1.60;;
7683;SDS011;3884;48.616;12.872;2023-09-19T15:15:30;1.93;;;1.60;;
7683;SDS011;3884;48.616;12.872;2023-09-19T15:17:57;2.13;;;1.73;;
7683;SDS011;3884;48.616;12.872;2023-09-19T15:20:24;3.70;;;1.70;;
7683;SDS011;3884;48.616;12.872;2023-09-19T15:22:52;2.60;;;1.60;;
7683;SDS011;3884;48.616;12.872;2023-09-19T15:25:19;3.13;;;2.20;;
7683;SDS011;3884;48.616;12.872;2023-09-19T15:27:47;7.53;;;6.17;;
7683;SDS011;3884;48.616;12.872;2023-09-19T15:30:15;1.70;;;1.53;;
7683;SDS011;3884;48.616;12.872;2023-09-19T15:32:42;2.27;;;1.60;;
7683;SDS011;3884;48.616;12.872;2023-09-19T15:35:09;2.00;;;1.50;;
7683;SDS011;3884;48.616;12.872;2023-09-19T15:37:37;3.47;;;2.70;;
7683;SDS011;3884;48.616;12.872;2023-09-19T15:40:05;3.27;;;2.60;;
7683;SDS011;3884;48.616;12.872;2023-09-19T15:42:36;3.23;;;2.17;;
7683;SDS011;3884;48.616;12.872;2023-09-19T15:45:05;2.43;;;1.70;;